createdAt,value
2023-04-10T00:00:09.434Z,99.99
2023-04-10T00:01:09.640Z,99.76
2023-04-10T00:02:09.642Z,99.76
2023-04-10T00:03:09.958Z,99.86
2023-04-10T00:04:09.694Z,99.96
2023-04-10T00:05:09.568Z,99.99
2023-04-10T00:06:09.461Z,99.99
2023-04-10T00:07:09.968Z,99.99
2023-04-10T00:08:09.386Z,99.99
2023-04-10T00:09:09.540Z,99.99
2023-04-10T00:10:09.576Z,99.99
2023-04-10T00:11:10.217Z,99.99
2023-04-10T00:12:09.794Z,99.99
2023-04-10T00:13:09.449Z,99.99
2023-04-10T00:14:09.484Z,99.99
2023-04-10T00:15:09.445Z,99.99
2023-04-10T00:16:10.546Z,99.99
2023-04-10T00:17:09.269Z,99.99
2023-04-10T00:18:09.630Z,99.99
2023-04-10T00:19:09.438Z,99.99
2023-04-10T00:20:10.116Z,99.99
2023-04-10T00:21:09.919Z,99.99
2023-04-10T00:22:09.525Z,99.99
2023-04-10T00:23:09.479Z,99.99
2023-04-10T00:24:09.576Z,99.99
2023-04-10T00:25:09.637Z,99.99
2023-04-10T00:26:09.400Z,99.99
2023-04-10T00:27:09.276Z,99.99
2023-04-10T00:28:09.210Z,99.99
2023-04-10T00:29:09.283Z,99.99
2023-04-10T00:30:09.951Z,99.99
2023-04-10T00:31:09.249Z,99.99
2023-04-10T00:32:09.607Z,99.99
2023-04-10T00:33:09.334Z,99.99
2023-04-10T00:34:09.775Z,99.99
2023-04-10T00:35:09.331Z,99.99
2023-04-10T00:36:09.613Z,99.99
2023-04-10T00:37:09.099Z,99.99
2023-04-10T00:38:09.325Z,99.99
2023-04-10T00:39:09.481Z,99.99
2023-04-10T00:40:09.349Z,99.99
2023-04-10T00:41:09.367Z,99.99
2023-04-10T00:42:09.274Z,99.99
2023-04-10T00:43:08.997Z,99.99
2023-04-10T00:44:09.820Z,99.99
2023-04-10T00:45:09.202Z,99.99
2023-04-10T00:46:09.266Z,99.99
2023-04-10T00:47:09.367Z,99.99
2023-04-10T00:48:09.165Z,99.99
2023-04-10T00:49:09.268Z,99.99
2023-04-10T00:50:08.942Z,99.99
2023-04-10T00:51:08.941Z,99.99
2023-04-10T00:52:08.957Z,99.99
2023-04-10T00:53:08.928Z,99.99
2023-04-10T00:54:08.892Z,99.99
2023-04-10T00:55:08.858Z,99.99
2023-04-10T00:56:09.900Z,99.99
2023-04-10T00:57:09.234Z,99.99
2023-04-10T00:58:09.171Z,99.99
2023-04-10T00:59:08.903Z,99.99
2023-04-10T01:00:09.605Z,99.99
2023-04-10T01:01:09.018Z,99.99
2023-04-10T01:02:08.980Z,99.99
2023-04-10T01:03:08.905Z,99.99
2023-04-10T01:04:09.049Z,99.99
2023-04-10T01:05:08.786Z,99.99
2023-04-10T01:06:08.797Z,99.99
2023-04-10T01:07:08.761Z,99.99
2023-04-10T01:08:08.764Z,99.99
2023-04-10T01:09:08.758Z,99.99
2023-04-10T01:10:09.541Z,99.99
2023-04-10T01:11:08.737Z,99.99
2023-04-10T01:12:08.808Z,99.99
2023-04-10T01:13:08.730Z,99.72
2023-04-10T01:14:09.043Z,98.85
2023-04-10T01:15:08.812Z,97.66
2023-04-10T01:16:08.882Z,97.14
2023-04-10T01:17:08.794Z,96.69
2023-04-10T01:18:09.172Z,96.37
2023-04-10T01:19:08.713Z,95.34
2023-04-10T01:20:08.705Z,94.68
2023-04-10T01:21:09.066Z,94.68
2023-04-10T01:22:08.837Z,94.47
2023-04-10T01:23:08.779Z,93.95
2023-04-10T01:24:08.985Z,93.80
2023-04-10T01:25:08.818Z,93.80
2023-04-10T01:26:08.783Z,93.39
2023-04-10T01:27:08.573Z,93.08
2023-04-10T01:28:08.568Z,92.97
2023-04-10T01:29:08.774Z,92.11
2023-04-10T01:30:08.677Z,91.38
2023-04-10T01:31:08.683Z,90.41
2023-04-10T01:32:08.585Z,89.69
2023-04-10T01:33:08.725Z,88.51
2023-04-10T01:34:08.599Z,88.10
2023-04-10T01:35:08.656Z,87.85
2023-04-10T01:36:08.675Z,87.34
2023-04-10T01:37:08.464Z,86.16
2023-04-10T01:38:08.491Z,86.78
2023-04-10T01:39:09.367Z,86.57
2023-04-10T01:40:08.487Z,85.02
2023-04-10T01:41:08.598Z,84.67
2023-04-10T01:42:08.440Z,85.91
2023-04-10T01:43:08.599Z,85.30
2023-04-10T01:44:08.493Z,84.99
2023-04-10T01:45:08.496Z,83.13
2023-04-10T01:46:08.838Z,83.09
2023-04-10T01:47:08.406Z,83.81
2023-04-10T01:48:08.413Z,83.47
2023-04-10T01:49:08.709Z,82.74
2023-04-10T01:50:08.383Z,82.54
2023-04-10T01:51:08.344Z,82.23
2023-04-10T01:52:08.352Z,82.95
2023-04-10T01:53:08.339Z,82.74
2023-04-10T01:54:08.355Z,82.84
2023-04-10T01:55:08.415Z,82.84
2023-04-10T01:56:08.299Z,82.43
2023-04-10T01:57:08.303Z,83.67
2023-04-10T01:58:08.300Z,83.05
2023-04-10T01:59:08.279Z,83.19
2023-04-10T02:00:08.755Z,83.26
2023-04-10T02:01:10.218Z,84.22
2023-04-10T02:02:08.510Z,83.19
2023-04-10T02:03:08.604Z,83.50
2023-04-10T02:04:08.375Z,84.53
2023-04-10T02:05:08.360Z,83.91
2023-04-10T02:06:08.355Z,84.53
2023-04-10T02:07:08.212Z,84.43
2023-04-10T02:08:08.379Z,83.54
2023-04-10T02:09:08.528Z,83.23
2023-04-10T02:10:08.218Z,84.88
2023-04-10T02:11:08.305Z,85.30
2023-04-10T02:12:08.175Z,84.16
2023-04-10T02:13:08.153Z,84.36
2023-04-10T02:14:08.134Z,84.36
2023-04-10T02:15:08.239Z,83.99
2023-04-10T02:16:08.379Z,85.33
2023-04-10T02:17:08.379Z,84.92
2023-04-10T02:18:08.119Z,84.72
2023-04-10T02:19:08.096Z,84.20
2023-04-10T02:20:08.478Z,85.27
2023-04-10T02:21:08.167Z,86.30
2023-04-10T02:22:08.194Z,87.02
2023-04-10T02:23:08.169Z,85.99
2023-04-10T02:24:08.167Z,85.78
2023-04-10T02:25:08.193Z,86.20
2023-04-10T02:26:08.131Z,85.68
2023-04-10T02:27:08.012Z,85.78
2023-04-10T02:28:08.087Z,85.93
2023-04-10T02:29:07.959Z,86.65
2023-04-10T02:30:08.398Z,86.96
2023-04-10T02:31:08.266Z,87.37
2023-04-10T02:32:07.957Z,88.31
2023-04-10T02:33:08.139Z,87.89
2023-04-10T02:34:08.314Z,88.61
2023-04-10T02:35:08.195Z,87.93
2023-04-10T02:36:08.174Z,88.04
2023-04-10T02:37:08.160Z,87.52
2023-04-10T02:38:08.087Z,87.93
2023-04-10T02:39:08.261Z,89.28
2023-04-10T02:40:08.002Z,89.32
2023-04-10T02:41:07.894Z,89.22
2023-04-10T02:42:08.119Z,89.42
2023-04-10T02:43:08.087Z,90.14
2023-04-10T02:44:07.985Z,90.14
2023-04-10T02:45:07.867Z,91.59
2023-04-10T02:46:08.549Z,91.11
2023-04-10T02:47:08.152Z,90.80
2023-04-10T02:48:07.980Z,90.39
2023-04-10T02:49:08.094Z,90.29
2023-04-10T02:50:07.798Z,91.11
2023-04-10T02:51:07.782Z,91.78
2023-04-10T02:52:07.845Z,91.57
2023-04-10T02:53:07.862Z,91.57
2023-04-10T02:54:08.133Z,92.19
2023-04-10T02:55:08.004Z,92.71
2023-04-10T02:56:07.758Z,92.81
2023-04-10T02:57:08.131Z,93.02
2023-04-10T02:58:07.833Z,92.85
2023-04-10T02:59:07.928Z,93.27
2023-04-10T03:00:08.089Z,93.27
2023-04-10T03:01:08.276Z,93.48
2023-04-10T03:02:08.370Z,93.16
2023-04-10T03:03:08.536Z,93.16
2023-04-10T03:04:08.134Z,93.21
2023-04-10T03:05:07.952Z,93.31
2023-04-10T03:06:08.143Z,93.00
2023-04-10T03:07:07.603Z,93.52
2023-04-10T03:08:07.633Z,94.14
2023-04-10T03:09:08.023Z,94.45
2023-04-10T03:10:07.681Z,94.14
2023-04-10T03:11:07.647Z,94.76
2023-04-10T03:12:07.588Z,95.28
2023-04-10T03:13:07.697Z,95.39
2023-04-10T03:14:07.591Z,95.43
2023-04-10T03:15:07.510Z,95.32
2023-04-10T03:16:07.574Z,95.12
2023-04-10T03:17:08.082Z,95.53
2023-04-10T03:18:07.578Z,95.53
2023-04-10T03:19:07.518Z,95.22
2023-04-10T03:20:07.537Z,95.12
2023-04-10T03:21:07.507Z,95.22
2023-04-10T03:22:07.534Z,95.12
2023-04-10T03:23:07.494Z,95.12
2023-04-10T03:24:07.492Z,95.32
2023-04-10T03:25:07.492Z,95.43
2023-04-10T03:26:07.705Z,95.74
2023-04-10T03:27:08.024Z,95.64
2023-04-10T03:28:07.822Z,95.47
2023-04-10T03:29:07.539Z,95.37
2023-04-10T03:30:07.581Z,95.99
2023-04-10T03:31:07.778Z,96.20
2023-04-10T03:32:07.449Z,96.09
2023-04-10T03:33:07.512Z,95.89
2023-04-10T03:34:07.366Z,96.30
2023-04-10T03:35:07.348Z,96.57
2023-04-10T03:36:07.321Z,96.47
2023-04-10T03:37:07.355Z,96.15
2023-04-10T03:38:07.442Z,95.74
2023-04-10T03:39:07.466Z,95.01
2023-04-10T03:40:08.073Z,95.01
2023-04-10T03:41:07.637Z,94.70
2023-04-10T03:42:07.307Z,94.08
2023-04-10T03:43:07.592Z,94.49
2023-04-10T03:44:07.320Z,94.08
2023-04-10T03:45:07.407Z,93.56
2023-04-10T03:46:07.388Z,93.35
2023-04-10T03:47:07.440Z,93.66
2023-04-10T03:48:07.853Z,94.29
2023-04-10T03:49:07.440Z,94.29
2023-04-10T03:50:07.496Z,93.98
2023-04-10T03:51:07.620Z,94.18
2023-04-10T03:52:07.602Z,92.69
2023-04-10T03:53:07.456Z,90.95
2023-04-10T03:54:07.396Z,90.70
2023-04-10T03:55:07.860Z,89.87
2023-04-10T03:56:07.158Z,89.67
2023-04-10T03:57:07.347Z,89.29
2023-04-10T03:58:07.218Z,89.71
2023-04-10T03:59:07.120Z,89.92
2023-04-10T04:00:07.072Z,90.44
2023-04-10T04:01:07.068Z,90.58
2023-04-10T04:02:07.652Z,90.89
2023-04-10T04:03:07.641Z,90.78
2023-04-10T04:04:07.375Z,90.68
2023-04-10T04:05:07.375Z,90.72
2023-04-10T04:06:07.200Z,91.03
2023-04-10T04:07:07.018Z,91.66
2023-04-10T04:08:07.055Z,92.49
2023-04-10T04:09:07.217Z,92.74
2023-04-10T04:10:07.445Z,93.04
2023-04-10T04:11:07.200Z,93.04
2023-04-10T04:12:07.033Z,92.74
2023-04-10T04:13:06.995Z,93.46
2023-04-10T04:14:07.028Z,93.25
2023-04-10T04:15:07.058Z,93.25
2023-04-10T04:16:07.233Z,93.40
2023-04-10T04:17:07.026Z,93.91
2023-04-10T04:18:07.032Z,93.40
2023-04-10T04:19:07.019Z,93.08
2023-04-10T04:20:07.077Z,93.71
2023-04-10T04:21:06.903Z,93.81
2023-04-10T04:22:07.030Z,93.81
2023-04-10T04:23:06.979Z,94.12
2023-04-10T04:24:07.192Z,93.60
2023-04-10T04:25:07.137Z,93.40
2023-04-10T04:26:07.189Z,93.08
2023-04-10T04:27:07.077Z,92.78
2023-04-10T04:28:07.469Z,93.60
2023-04-10T04:29:06.956Z,93.29
2023-04-10T04:30:07.006Z,93.08
2023-04-10T04:31:06.837Z,93.15
2023-04-10T04:32:06.984Z,92.11
2023-04-10T04:33:06.882Z,92.18
2023-04-10T04:34:07.189Z,91.03
2023-04-10T04:35:07.032Z,90.62
2023-04-10T04:36:07.050Z,91.03
2023-04-10T04:37:07.002Z,90.10
2023-04-10T04:38:06.741Z,88.82
2023-04-10T04:39:06.761Z,87.43
2023-04-10T04:40:06.740Z,87.81
2023-04-10T04:41:06.914Z,86.32
2023-04-10T04:42:06.745Z,86.11
2023-04-10T04:43:06.709Z,85.70
2023-04-10T04:44:06.678Z,86.52
2023-04-10T04:45:06.694Z,86.21
2023-04-10T04:46:06.744Z,86.11
2023-04-10T04:47:06.641Z,86.63
2023-04-10T04:48:06.626Z,86.01
2023-04-10T04:49:06.641Z,87.29
2023-04-10T04:50:06.629Z,86.36
2023-04-10T04:51:06.835Z,85.08
2023-04-10T04:52:06.813Z,86.32
2023-04-10T04:53:08.014Z,85.39
2023-04-10T04:54:06.775Z,85.45
2023-04-10T04:55:06.558Z,84.42
2023-04-10T04:56:06.582Z,84.31
2023-04-10T04:57:06.542Z,83.97
2023-04-10T04:58:06.605Z,82.93
2023-04-10T04:59:06.645Z,84.07
2023-04-10T05:00:06.649Z,83.65
2023-04-10T05:01:06.567Z,82.59
2023-04-10T05:02:06.569Z,81.76
2023-04-10T05:03:06.788Z,81.62
2023-04-10T05:04:06.685Z,82.24
2023-04-10T05:05:06.476Z,82.03
2023-04-10T05:06:06.592Z,82.03
2023-04-10T05:07:06.531Z,81.93
2023-04-10T05:08:06.460Z,81.62
2023-04-10T05:09:06.426Z,81.31
2023-04-10T05:10:06.498Z,80.34
2023-04-10T05:11:06.454Z,79.93
2023-04-10T05:12:06.422Z,78.66
2023-04-10T05:13:06.406Z,79.58
2023-04-10T05:14:06.720Z,79.38
2023-04-10T05:15:06.397Z,79.27
2023-04-10T05:16:06.521Z,78.52
2023-04-10T05:17:06.451Z,78.21
2023-04-10T05:18:06.416Z,77.48
2023-04-10T05:19:06.669Z,77.86
2023-04-10T05:20:06.373Z,77.35
2023-04-10T05:21:06.333Z,76.49
2023-04-10T05:22:07.189Z,77.21
2023-04-10T05:23:06.335Z,76.39
2023-04-10T05:24:06.519Z,75.67
2023-04-10T05:25:06.599Z,76.35
2023-04-10T05:26:06.305Z,75.94
2023-04-10T05:27:06.289Z,76.45
2023-04-10T05:28:06.450Z,76.97
2023-04-10T05:29:06.292Z,75.84
2023-04-10T05:30:06.302Z,75.94
2023-04-10T05:31:06.467Z,75.32
2023-04-10T05:32:06.388Z,74.77
2023-04-10T05:33:06.181Z,73.74
2023-04-10T05:34:06.426Z,75.87
2023-04-10T05:35:06.234Z,74.02
2023-04-10T05:36:06.214Z,74.63
2023-04-10T05:37:06.436Z,73.61
2023-04-10T05:38:06.195Z,74.08
2023-04-10T05:39:06.362Z,74.70
2023-04-10T05:40:06.242Z,74.19
2023-04-10T05:41:06.308Z,75.21
2023-04-10T05:42:06.197Z,74.29
2023-04-10T05:43:06.270Z,73.88
2023-04-10T05:44:06.114Z,75.01
2023-04-10T05:45:06.053Z,73.57
2023-04-10T05:46:06.312Z,73.88
2023-04-10T05:47:06.275Z,73.57
2023-04-10T05:48:06.049Z,73.44
2023-04-10T05:49:06.034Z,74.77
2023-04-10T05:50:06.005Z,73.95
2023-04-10T05:51:06.009Z,74.57
2023-04-10T05:52:06.400Z,73.23
2023-04-10T05:53:06.022Z,72.31
2023-04-10T05:54:06.200Z,72.06
2023-04-10T05:55:06.022Z,72.17
2023-04-10T05:56:05.983Z,71.31
2023-04-10T05:57:05.956Z,71.83
2023-04-10T05:58:05.984Z,70.39
2023-04-10T05:59:06.190Z,69.95
2023-04-10T06:00:05.949Z,70.36
2023-04-10T06:01:05.947Z,70.26
2023-04-10T06:02:06.496Z,69.74
2023-04-10T06:03:06.052Z,69.92
2023-04-10T06:04:06.033Z,70.64
2023-04-10T06:05:05.969Z,68.68
2023-04-10T06:06:05.888Z,69.47
2023-04-10T06:07:05.879Z,68.76
2023-04-10T06:08:06.022Z,67.70
2023-04-10T06:09:05.853Z,66.57
2023-04-10T06:10:05.869Z,65.62
2023-04-10T06:11:05.807Z,65.80
2023-04-10T06:12:06.005Z,64.98
2023-04-10T06:13:05.790Z,64.77
2023-04-10T06:14:06.001Z,65.56
2023-04-10T06:15:05.779Z,64.33
2023-04-10T06:16:05.928Z,66.17
2023-04-10T06:17:05.767Z,63.00
2023-04-10T06:18:06.134Z,65.87
2023-04-10T06:19:06.078Z,64.03
2023-04-10T06:20:05.898Z,65.97
2023-04-10T06:21:05.831Z,64.95
2023-04-10T06:22:05.867Z,63.51
2023-04-10T06:23:06.156Z,64.33
2023-04-10T06:24:05.862Z,63.41
2023-04-10T06:25:05.880Z,64.20
2023-04-10T06:26:05.799Z,64.40
2023-04-10T06:27:05.669Z,65.73
2023-04-10T06:28:05.710Z,64.51
2023-04-10T06:29:05.780Z,65.77
2023-04-10T06:30:05.654Z,64.33
2023-04-10T06:31:05.819Z,63.39
2023-04-10T06:32:05.634Z,63.07
2023-04-10T06:33:05.917Z,62.77
2023-04-10T06:34:05.933Z,64.81
2023-04-10T06:35:06.055Z,64.30
2023-04-10T06:36:05.660Z,64.37
2023-04-10T06:37:05.540Z,62.63
2023-04-10T06:38:05.548Z,63.45
2023-04-10T06:39:05.541Z,62.10
2023-04-10T06:40:05.688Z,61.87
2023-04-10T06:41:05.515Z,63.98
2023-04-10T06:42:05.506Z,62.11
2023-04-10T06:43:05.584Z,60.86
2023-04-10T06:44:05.607Z,59.81
2023-04-10T06:45:05.667Z,57.65
2023-04-10T06:46:05.786Z,58.56
2023-04-10T06:47:05.534Z,59.66
2023-04-10T06:48:05.530Z,59.55
2023-04-10T06:49:05.487Z,57.21
2023-04-10T06:50:05.865Z,58.00
2023-04-10T06:51:05.780Z,57.90
2023-04-10T06:52:05.465Z,55.35
2023-04-10T06:53:05.576Z,55.02
2023-04-10T06:54:05.386Z,55.94
2023-04-10T06:55:05.518Z,57.54
2023-04-10T06:56:05.411Z,56.12
2023-04-10T06:57:05.442Z,55.40
2023-04-10T06:58:05.393Z,55.78
2023-04-10T06:59:05.353Z,55.68
2023-04-10T07:00:05.342Z,53.85
2023-04-10T07:01:05.536Z,54.18
2023-04-10T07:02:05.359Z,55.88
2023-04-10T07:03:05.572Z,56.42
2023-04-10T07:04:05.598Z,56.29
2023-04-10T07:05:05.283Z,55.07
2023-04-10T07:06:05.319Z,53.85
2023-04-10T07:07:05.279Z,55.15
2023-04-10T07:08:05.252Z,55.35
2023-04-10T07:09:05.268Z,54.57
2023-04-10T07:10:05.409Z,54.69
2023-04-10T07:11:05.207Z,55.10
2023-04-10T07:12:05.230Z,54.39
2023-04-10T07:13:05.289Z,56.32
2023-04-10T07:14:05.258Z,53.45
2023-04-10T07:15:05.176Z,55.78
2023-04-10T07:16:05.274Z,55.27
2023-04-10T07:17:05.147Z,55.66
2023-04-10T07:18:05.271Z,53.83
2023-04-10T07:19:05.159Z,55.66
2023-04-10T07:20:05.514Z,52.91
2023-04-10T07:21:05.211Z,54.41
2023-04-10T07:22:05.349Z,53.80
2023-04-10T07:23:05.318Z,52.38
2023-04-10T07:24:05.071Z,53.39
2023-04-10T07:25:05.102Z,52.86
2023-04-10T07:26:05.075Z,53.34
2023-04-10T07:27:05.102Z,50.68
2023-04-10T07:28:05.138Z,51.04
2023-04-10T07:29:05.070Z,49.55
2023-04-10T07:30:05.033Z,51.52
2023-04-10T07:31:05.059Z,52.11
2023-04-10T07:32:05.110Z,49.27
2023-04-10T07:33:05.172Z,50.08
2023-04-10T07:34:05.220Z,52.41
2023-04-10T07:35:05.210Z,50.26
2023-04-10T07:36:05.207Z,53.09
2023-04-10T07:37:05.190Z,52.48
2023-04-10T07:38:04.951Z,50.34
2023-04-10T07:39:04.968Z,50.84
2023-04-10T07:40:05.047Z,49.70
2023-04-10T07:41:05.135Z,50.71
2023-04-10T07:42:04.939Z,50.21
2023-04-10T07:43:04.931Z,49.38
2023-04-10T07:44:04.892Z,48.16
2023-04-10T07:45:04.958Z,53.50
2023-04-10T07:46:05.030Z,48.85
2023-04-10T07:47:04.984Z,50.16
2023-04-10T07:48:05.061Z,49.48
2023-04-10T07:49:07.354Z,49.40
2023-04-10T07:50:04.895Z,51.09
2023-04-10T07:51:05.088Z,52.01
2023-04-10T07:52:04.835Z,48.87
2023-04-10T07:53:04.811Z,50.71
2023-04-10T07:54:04.800Z,49.27
2023-04-10T07:55:04.825Z,49.25
2023-04-10T07:56:05.056Z,49.45
2023-04-10T07:57:04.816Z,53.47
2023-04-10T07:58:04.776Z,50.01
2023-04-10T07:59:04.848Z,48.50
2023-04-10T08:00:04.815Z,49.53
2023-04-10T08:01:05.018Z,49.48
2023-04-10T08:02:04.916Z,47.28
2023-04-10T08:03:05.217Z,46.70
2023-04-10T08:04:06.141Z,46.48
2023-04-10T08:05:04.857Z,47.26
2023-04-10T08:06:04.798Z,48.45
2023-04-10T08:07:04.818Z,48.33
2023-04-10T08:08:04.832Z,49.92
2023-04-10T08:09:04.810Z,48.36
2023-04-10T08:10:04.669Z,45.92
2023-04-10T08:11:04.637Z,45.90
2023-04-10T08:12:04.595Z,47.61
2023-04-10T08:13:04.684Z,46.22
2023-04-10T08:14:04.583Z,48.69
2023-04-10T08:15:04.686Z,43.24
2023-04-10T08:16:04.782Z,47.06
2023-04-10T08:17:04.763Z,43.10
2023-04-10T08:18:04.664Z,44.18
2023-04-10T08:19:04.585Z,43.78
2023-04-10T08:20:04.621Z,43.86
2023-04-10T08:21:04.738Z,40.97
2023-04-10T08:22:04.576Z,40.91
2023-04-10T08:23:17.364Z,42.46
2023-04-10T08:24:04.679Z,45.45
2023-04-10T08:25:04.880Z,43.06
2023-04-10T08:26:04.677Z,42.88
2023-04-10T08:27:04.486Z,46.30
2023-04-10T08:28:04.586Z,44.92
2023-04-10T08:29:04.491Z,44.59
2023-04-10T08:30:04.472Z,43.88
2023-04-10T08:31:04.773Z,43.46
2023-04-10T08:32:04.628Z,44.67
2023-04-10T08:33:04.687Z,42.27
2023-04-10T08:34:04.555Z,45.29
2023-04-10T08:35:04.615Z,43.54
2023-04-10T08:36:04.579Z,44.15
2023-04-10T08:37:04.371Z,41.63
2023-04-10T08:38:13.674Z,41.75
2023-04-10T08:39:04.387Z,46.36
2023-04-10T08:40:04.633Z,43.92
2023-04-10T08:41:04.325Z,43.82
2023-04-10T08:42:04.362Z,43.28
2023-04-10T08:43:04.347Z,43.20
2023-04-10T08:44:04.463Z,40.79
2023-04-10T08:45:04.363Z,40.89
2023-04-10T08:46:04.376Z,42.69
2023-04-10T08:47:04.334Z,44.12
2023-04-10T08:48:04.412Z,42.44
2023-04-10T08:49:04.324Z,43.04
2023-04-10T08:50:04.281Z,42.33
2023-04-10T08:51:04.939Z,42.86
2023-04-10T08:52:04.288Z,40.64
2023-04-10T08:53:04.391Z,41.35
2023-04-10T08:54:04.226Z,41.43
2023-04-10T08:55:04.505Z,42.96
2023-04-10T08:56:04.432Z,43.68
2023-04-10T08:57:04.261Z,46.88
2023-04-10T08:58:04.472Z,42.18
2023-04-10T08:59:04.366Z,43.02
2023-04-10T09:09:04.153Z,45.46
2023-04-10T09:09:09.664Z,45.99
2023-04-10T09:10:09.552Z,43.38
2023-04-10T09:11:09.640Z,41.89
2023-04-10T09:12:09.717Z,41.03
2023-04-10T09:13:09.684Z,42.47
2023-04-10T09:14:09.558Z,44.77
2023-04-10T09:15:09.974Z,43.64
2023-04-10T09:16:09.615Z,44.87
2023-04-10T09:17:09.446Z,44.09
2023-04-10T09:18:09.490Z,44.69
2023-04-10T09:19:09.517Z,44.09
2023-04-10T09:20:09.553Z,44.79
2023-04-10T09:21:09.479Z,45.55
2023-04-10T09:22:09.546Z,43.72
2023-04-10T09:23:09.473Z,43.42
2023-04-10T09:24:09.373Z,42.90
2023-04-10T09:25:09.361Z,42.07
2023-04-10T09:26:09.375Z,41.13
2023-04-10T09:27:09.385Z,40.41
2023-04-10T09:28:09.345Z,39.40
2023-04-10T09:29:09.364Z,38.68
2023-04-10T09:30:09.553Z,40.19
2023-04-10T09:31:09.347Z,38.62
2023-04-10T09:32:09.489Z,40.33
2023-04-10T09:33:09.389Z,39.91
2023-04-10T09:34:09.308Z,42.18
2023-04-10T09:35:09.396Z,38.45
2023-04-10T09:36:09.450Z,37.53
2023-04-10T09:37:09.382Z,37.35
2023-04-10T09:38:09.264Z,41.96
2023-04-10T09:39:09.519Z,38.35
2023-04-10T09:40:09.258Z,37.45
2023-04-10T09:41:09.217Z,39.23
2023-04-10T09:42:09.366Z,40.41
2023-04-10T09:43:09.305Z,38.01
2023-04-10T09:44:09.280Z,38.91
2023-04-10T09:45:09.383Z,37.29
2023-04-10T09:46:09.191Z,37.49
2023-04-10T09:47:09.141Z,38.91
2023-04-10T09:48:09.229Z,37.45
2023-04-10T09:49:09.273Z,40.85
2023-04-10T09:50:09.304Z,40.25
2023-04-10T09:51:09.098Z,39.83
2023-04-10T09:52:09.097Z,39.75
2023-04-10T09:53:09.268Z,40.35
2023-04-10T09:54:09.055Z,38.97
2023-04-10T09:55:09.104Z,41.77
2023-04-10T09:56:09.666Z,38.49
2023-04-10T09:57:09.144Z,40.09
2023-04-10T09:58:09.112Z,39.99
2023-04-10T09:59:09.058Z,40.19
2023-04-10T10:00:09.287Z,38.87
2023-04-10T10:01:08.984Z,39.73
2023-04-10T10:02:09.077Z,39.63
2023-04-10T10:03:09.233Z,40.71
2023-04-10T10:04:08.946Z,37.83
2023-04-10T10:05:09.157Z,39.67
2023-04-10T10:06:09.076Z,39.29
2023-04-10T10:07:09.070Z,40.49
2023-04-10T10:08:09.073Z,40.07
2023-04-10T10:09:08.919Z,42.05
2023-04-10T10:10:09.187Z,39.43
2023-04-10T10:11:08.987Z,38.51
2023-04-10T10:12:09.091Z,37.35
2023-04-10T10:13:08.867Z,39.42
2023-04-10T10:14:09.515Z,40.67
2023-04-10T10:15:09.117Z,41.41
2023-04-10T10:16:08.821Z,41.91
2023-04-10T10:17:08.951Z,42.54
2023-04-10T10:18:09.116Z,43.34
2023-04-10T10:19:09.126Z,41.53
2023-04-10T10:20:09.036Z,42.32
2023-04-10T10:21:09.118Z,42.15
2023-04-10T10:22:08.790Z,42.41
2023-04-10T10:23:08.798Z,40.06
2023-04-10T10:24:08.766Z,40.63
2023-04-10T10:25:08.957Z,39.47
2023-04-10T10:26:08.801Z,39.15
2023-04-10T10:27:08.798Z,39.53
2023-04-10T10:28:08.750Z,39.89
2023-04-10T10:29:09.141Z,38.07
2023-04-10T10:30:25.319Z,36.79
2023-04-10T10:31:08.760Z,38.09
2023-04-10T10:32:08.925Z,37.41
2023-04-10T10:33:09.095Z,36.43
2023-04-10T10:34:08.718Z,38.03
2023-04-10T10:35:08.750Z,40.00
2023-04-10T10:36:08.641Z,39.13
2023-04-10T10:37:08.660Z,38.63
2023-04-10T10:38:08.933Z,38.29
2023-04-10T10:39:08.836Z,36.56
2023-04-10T10:40:08.828Z,37.36
2023-04-10T10:41:08.728Z,39.64
2023-04-10T10:42:09.175Z,37.36
2023-04-10T10:43:08.560Z,35.48
2023-04-10T10:44:08.691Z,38.31
2023-04-10T10:45:08.610Z,36.61
2023-04-10T10:46:08.566Z,37.71
2023-04-10T10:47:08.657Z,39.91
2023-04-10T10:48:08.584Z,37.23
2023-04-10T10:49:09.117Z,38.93
2023-04-10T10:50:08.686Z,38.42
2023-04-10T10:51:08.711Z,37.03
2023-04-10T10:52:08.765Z,39.05
2023-04-10T10:53:08.454Z,40.83
2023-04-10T10:54:08.612Z,38.13
2023-04-10T10:55:08.547Z,38.17
2023-04-10T10:56:08.517Z,39.18
2023-04-10T10:57:08.483Z,37.68
2023-04-10T10:58:08.662Z,38.20
2023-04-10T10:59:08.458Z,37.92
2023-04-10T11:00:08.397Z,39.03
2023-04-10T11:01:10.288Z,38.70
2023-04-10T11:02:08.524Z,37.63
2023-04-10T11:03:08.505Z,39.66
2023-04-10T11:04:08.645Z,41.27
2023-04-10T11:05:08.349Z,41.17
2023-04-10T11:06:08.712Z,41.27
2023-04-10T11:07:08.812Z,40.79
2023-04-10T11:08:08.569Z,39.86
2023-04-10T11:09:08.761Z,40.05
2023-04-10T11:10:08.341Z,39.54
2023-04-10T11:11:08.437Z,38.14
2023-04-10T11:12:08.433Z,40.03
2023-04-10T11:13:08.274Z,38.89
2023-04-10T11:14:08.288Z,38.59
2023-04-10T11:15:08.353Z,38.87
2023-04-10T11:16:08.305Z,38.09
2023-04-10T11:17:08.430Z,37.10
2023-04-10T11:18:08.401Z,38.81
2023-04-10T11:19:14.281Z,39.42
2023-04-10T11:20:08.472Z,39.04
2023-04-10T11:21:08.167Z,39.25
2023-04-10T11:22:08.434Z,39.95
2023-04-10T11:23:08.153Z,40.87
2023-04-10T11:24:08.180Z,40.15
2023-04-10T11:25:08.215Z,39.12
2023-04-10T11:26:08.177Z,39.40
2023-04-10T11:27:08.116Z,38.90
2023-04-10T11:28:08.104Z,39.91
2023-04-10T11:29:08.148Z,37.32
2023-04-10T11:30:08.128Z,41.03
2023-04-10T11:31:08.078Z,38.24
2023-04-10T11:32:08.281Z,39.58
2023-04-10T11:33:08.163Z,39.58
2023-04-10T11:34:08.127Z,39.47
2023-04-10T11:35:08.083Z,39.66
2023-04-10T11:36:08.068Z,39.54
2023-04-10T11:37:08.215Z,38.62
2023-04-10T11:38:08.281Z,38.51
2023-04-10T11:39:08.114Z,38.09
2023-04-10T11:40:08.014Z,39.29
2023-04-10T11:41:08.007Z,36.88
2023-04-10T11:42:07.939Z,38.99
2023-04-10T11:43:08.057Z,39.18
2023-04-10T11:44:08.254Z,38.99
2023-04-10T11:45:07.955Z,38.99
2023-04-10T11:46:08.239Z,38.51
2023-04-10T11:47:08.514Z,39.91
2023-04-10T11:48:08.063Z,39.09
2023-04-10T11:49:07.927Z,37.68
2023-04-10T11:50:07.939Z,38.15
2023-04-10T11:51:07.954Z,36.07
2023-04-10T11:52:07.861Z,36.30
2023-04-10T11:53:07.902Z,37.28
2023-04-10T11:54:07.968Z,36.78
2023-04-10T11:55:08.140Z,37.77
2023-04-10T11:56:08.058Z,40.25
2023-04-10T11:57:08.406Z,35.14
2023-04-10T11:58:07.873Z,36.87
2023-04-10T11:59:08.063Z,36.07
2023-04-10T12:00:08.181Z,35.85
2023-04-10T12:01:08.125Z,35.56
2023-04-10T12:02:08.085Z,36.98
2023-04-10T12:03:08.051Z,37.30
2023-04-10T12:04:08.094Z,35.60
2023-04-10T12:05:07.943Z,38.10
2023-04-10T12:06:07.904Z,37.08
2023-04-10T12:07:07.800Z,38.27
2023-04-10T12:08:07.776Z,38.35
2023-04-10T12:09:07.712Z,35.93
2023-04-10T12:10:08.516Z,36.41
2023-04-10T12:11:07.726Z,35.03
2023-04-10T12:12:07.858Z,35.05
2023-04-10T12:13:07.763Z,36.57
2023-04-10T12:14:07.741Z,37.10
2023-04-10T12:15:07.647Z,39.12
2023-04-10T12:16:07.903Z,38.12
2023-04-10T12:17:07.818Z,38.32
2023-04-10T12:18:07.612Z,39.61
2023-04-10T12:19:07.743Z,37.98
2023-04-10T12:20:07.765Z,36.98
2023-04-10T12:21:08.594Z,38.65
2023-04-10T12:22:07.773Z,37.63
2023-04-10T12:23:07.733Z,39.91
2023-04-10T12:24:07.639Z,35.41
2023-04-10T12:25:07.729Z,36.31
2023-04-10T12:26:08.537Z,34.80
2023-04-10T12:27:07.594Z,37.40
2023-04-10T12:28:07.716Z,35.41
2023-04-10T12:29:07.572Z,36.91
2023-04-10T12:30:07.770Z,36.10
2023-04-10T12:31:07.658Z,36.21
2023-04-10T12:32:07.603Z,34.31
2023-04-10T12:33:07.630Z,33.61
2023-04-10T12:34:09.861Z,34.91
2023-04-10T12:35:07.553Z,36.21
2023-04-10T12:36:07.582Z,36.41
2023-04-10T12:37:07.551Z,35.31
2023-04-10T12:38:07.574Z,36.69
2023-04-10T12:39:07.431Z,36.43
2023-04-10T12:40:07.674Z,35.78
2023-04-10T12:41:07.417Z,33.95
2023-04-10T12:42:07.757Z,33.06
2023-04-10T12:43:07.393Z,34.46
2023-04-10T12:44:07.573Z,34.43
2023-04-10T12:45:07.401Z,33.10
2023-04-10T12:46:07.407Z,32.60
2023-04-10T12:47:07.419Z,33.08
2023-04-10T12:48:07.597Z,32.00
2023-04-10T12:49:07.429Z,33.54
2023-04-10T12:50:07.880Z,35.39
2023-04-10T12:51:07.365Z,34.91
2023-04-10T12:52:07.361Z,37.45
2023-04-10T12:53:07.694Z,36.38
2023-04-10T12:54:07.294Z,37.92
2023-04-10T12:55:07.434Z,40.35
2023-04-10T12:56:07.653Z,38.44
2023-04-10T12:57:07.641Z,37.55
2023-04-10T12:58:07.285Z,37.85
2023-04-10T12:59:07.442Z,37.17
2023-04-10T13:00:07.279Z,41.17